sensor_id;sensor_type;location;lat;lon;timestamp;P1;durP1;ratioP1;P2;durP2;ratioP2
39410;SDS011;26579;43.238;23.124;2022-11-20T00:00:13;49.88;;;10.68;;
39410;SDS011;26579;43.238;23.124;2022-11-20T00:02:40;19.70;;;10.88;;
39410;SDS011;26579;43.238;23.124;2022-11-20T00:05:07;21.00;;;10.75;;
39410;SDS011;26579;43.238;23.124;2022-11-20T00:07:37;19.60;;;11.30;;
39410;SDS011;26579;43.238;23.124;2022-11-20T00:10:07;15.88;;;9.68;;
39410;SDS011;26579;43.238;23.124;2022-11-20T00:12:35;20.80;;;11.43;;
39410;SDS011;26579;43.238;23.124;2022-11-20T00:15:03;18.10;;;10.93;;
39410;SDS011;26579;43.238;23.124;2022-11-20T00:17:29;17.92;;;10.43;;
39410;SDS011;26579;43.238;23.124;2022-11-20T00:19:57;19.52;;;11.77;;
39410;SDS011;26579;43.238;23.124;2022-11-20T00:22:24;16.75;;;10.60;;
39410;SDS011;26579;43.238;23.124;2022-11-20T00:24:50;18.13;;;9.82;;
39410;SDS011;26579;43.238;23.124;2022-11-20T00:27:17;19.10;;;11.05;;
39410;SDS011;26579;43.238;23.124;2022-11-20T00:29:43;27.92;;;11.13;;
39410;SDS011;26579;43.238;23.124;2022-11-20T00:32:10;28.75;;;12.95;;
39410;SDS011;26579;43.238;23.124;2022-11-20T00:34:36;23.67;;;13.43;;
39410;SDS011;26579;43.238;23.124;2022-11-20T00:37:03;27.90;;;11.55;;
39410;SDS011;26579;43.238;23.124;2022-11-20T00:39:30;17.95;;;11.38;;
39410;SDS011;26579;43.238;23.124;2022-11-20T00:41:57;18.67;;;10.90;;
39410;SDS011;26579;43.238;23.124;2022-11-20T00:44:23;20.33;;;11.70;;
39410;SDS011;26579;43.238;23.124;2022-11-20T00:46:49;18.00;;;11.40;;
39410;SDS011;26579;43.238;23.124;2022-11-20T00:49:17;17.50;;;10.95;;
39410;SDS011;26579;43.238;23.124;2022-11-20T00:51:45;19.02;;;10.45;;
39410;SDS011;26579;43.238;23.124;2022-11-20T00:54:14;30.70;;;8.82;;
39410;SDS011;26579;43.238;23.124;2022-11-20T00:56:40;15.27;;;9.18;;
39410;SDS011;26579;43.238;23.124;2022-11-20T00:59:08;14.65;;;7.70;;
39410;SDS011;26579;43.238;23.124;2022-11-20T01:01:35;11.98;;;7.38;;
39410;SDS011;26579;43.238;23.124;2022-11-20T01:04:03;12.95;;;8.02;;
39410;SDS011;26579;43.238;23.124;2022-11-20T01:06:32;10.85;;;6.82;;
39410;SDS011;26579;43.238;23.124;2022-11-20T01:09:04;10.63;;;6.22;;
39410;SDS011;26579;43.238;23.124;2022-11-20T01:11:33;12.20;;;6.50;;
39410;SDS011;26579;43.238;23.124;2022-11-20T01:14:06;10.95;;;6.00;;
39410;SDS011;26579;43.238;23.124;2022-11-20T01:16:38;9.60;;;6.38;;
39410;SDS011;26579;43.238;23.124;2022-11-20T01:19:09;11.52;;;6.47;;
39410;SDS011;26579;43.238;23.124;2022-11-20T01:21:38;13.45;;;7.00;;
39410;SDS011;26579;43.238;23.124;2022-11-20T01:24:06;13.63;;;7.95;;
39410;SDS011;26579;43.238;23.124;2022-11-20T01:26:39;13.30;;;7.82;;
39410;SDS011;26579;43.238;23.124;2022-11-20T01:29:06;11.73;;;7.28;;
39410;SDS011;26579;43.238;23.124;2022-11-20T01:31:50;12.85;;;7.65;;
39410;SDS011;26579;43.238;23.124;2022-11-20T01:34:17;13.95;;;8.27;;
39410;SDS011;26579;43.238;23.124;2022-11-20T01:36:45;13.57;;;7.82;;
39410;SDS011;26579;43.238;23.124;2022-11-20T01:39:16;14.75;;;8.73;;
39410;SDS011;26579;43.238;23.124;2022-11-20T01:41:46;12.40;;;7.70;;
39410;SDS011;26579;43.238;23.124;2022-11-20T01:44:15;12.65;;;8.35;;
39410;SDS011;26579;43.238;23.124;2022-11-20T01:46:52;15.95;;;9.85;;
39410;SDS011;26579;43.238;23.124;2022-11-20T01:49:50;14.70;;;9.35;;
39410;SDS011;26579;43.238;23.124;2022-11-20T01:52:32;16.95;;;9.45;;
39410;SDS011;26579;43.238;23.124;2022-11-20T01:55:06;19.40;;;11.68;;
39410;SDS011;26579;43.238;23.124;2022-11-20T01:57:35;25.38;;;13.52;;
39410;SDS011;26579;43.238;23.124;2022-11-20T02:00:05;26.42;;;15.48;;
39410;SDS011;26579;43.238;23.124;2022-11-20T02:02:44;21.25;;;11.15;;
39410;SDS011;26579;43.238;23.124;2022-11-20T02:05:23;20.65;;;11.23;;
39410;SDS011;26579;43.238;23.124;2022-11-20T02:08:02;20.05;;;11.07;;
39410;SDS011;26579;43.238;23.124;2022-11-20T02:10:30;21.98;;;11.55;;
39410;SDS011;26579;43.238;23.124;2022-11-20T02:13:05;20.92;;;11.45;;
39410;SDS011;26579;43.238;23.124;2022-11-20T02:18:10;30.08;;;11.50;;
39410;SDS011;26579;43.238;23.124;2022-11-20T02:20:41;22.92;;;11.57;;
39410;SDS011;26579;43.238;23.124;2022-11-20T02:25:45;22.50;;;11.35;;
39410;SDS011;26579;43.238;23.124;2022-11-20T02:28:12;20.45;;;10.93;;
39410;SDS011;26579;43.238;23.124;2022-11-20T02:30:39;19.98;;;11.25;;
39410;SDS011;26579;43.238;23.124;2022-11-20T02:33:05;24.30;;;11.95;;
39410;SDS011;26579;43.238;23.124;2022-11-20T02:35:45;22.85;;;11.30;;
39410;SDS011;26579;43.238;23.124;2022-11-20T02:38:13;20.50;;;11.02;;
39410;SDS011;26579;43.238;23.124;2022-11-20T02:40:44;22.40;;;12.43;;
39410;SDS011;26579;43.238;23.124;2022-11-20T02:43:15;21.73;;;12.35;;
39410;SDS011;26579;43.238;23.124;2022-11-20T02:45:55;21.10;;;11.80;;
39410;SDS011;26579;43.238;23.124;2022-11-20T02:48:30;21.58;;;11.70;;
39410;SDS011;26579;43.238;23.124;2022-11-20T02:50:57;23.25;;;12.48;;
39410;SDS011;26579;43.238;23.124;2022-11-20T02:53:23;22.80;;;12.75;;
39410;SDS011;26579;43.238;23.124;2022-11-20T02:55:57;20.80;;;11.50;;
39410;SDS011;26579;43.238;23.124;2022-11-20T02:58:30;20.95;;;12.00;;
39410;SDS011;26579;43.238;23.124;2022-11-20T03:00:57;20.55;;;10.77;;
39410;SDS011;26579;43.238;23.124;2022-11-20T03:03:25;20.52;;;11.35;;
39410;SDS011;26579;43.238;23.124;2022-11-20T03:05:53;17.35;;;10.35;;
39410;SDS011;26579;43.238;23.124;2022-11-20T03:08:34;17.33;;;10.98;;
39410;SDS011;26579;43.238;23.124;2022-11-20T03:11:12;20.20;;;10.23;;
39410;SDS011;26579;43.238;23.124;2022-11-20T03:13:45;18.80;;;12.23;;
39410;SDS011;26579;43.238;23.124;2022-11-20T03:16:31;18.55;;;10.50;;
39410;SDS011;26579;43.238;23.124;2022-11-20T03:21:59;24.90;;;11.90;;
39410;SDS011;26579;43.238;23.124;2022-11-20T03:24:53;43.72;;;13.50;;
39410;SDS011;26579;43.238;23.124;2022-11-20T03:27:55;34.58;;;14.07;;
39410;SDS011;26579;43.238;23.124;2022-11-20T03:30:31;27.80;;;13.95;;
39410;SDS011;26579;43.238;23.124;2022-11-20T03:33:07;26.50;;;13.07;;
39410;SDS011;26579;43.238;23.124;2022-11-20T03:35:52;25.00;;;13.77;;
39410;SDS011;26579;43.238;23.124;2022-11-20T03:38:34;48.05;;;14.13;;
39410;SDS011;26579;43.238;23.124;2022-11-20T03:41:05;36.47;;;14.00;;
39410;SDS011;26579;43.238;23.124;2022-11-20T03:43:37;22.95;;;12.38;;
39410;SDS011;26579;43.238;23.124;2022-11-20T03:46:04;102.93;;;12.20;;
39410;SDS011;26579;43.238;23.124;2022-11-20T03:48:31;24.77;;;11.95;;
39410;SDS011;26579;43.238;23.124;2022-11-20T03:51:09;26.30;;;11.85;;
39410;SDS011;26579;43.238;23.124;2022-11-20T03:53:38;21.70;;;11.68;;
39410;SDS011;26579;43.238;23.124;2022-11-20T03:56:14;24.40;;;12.20;;
39410;SDS011;26579;43.238;23.124;2022-11-20T03:58:49;20.60;;;11.10;;
39410;SDS011;26579;43.238;23.124;2022-11-20T04:01:30;20.38;;;11.02;;
39410;SDS011;26579;43.238;23.124;2022-11-20T04:03:58;18.83;;;10.77;;
39410;SDS011;26579;43.238;23.124;2022-11-20T04:06:25;21.02;;;10.65;;
39410;SDS011;26579;43.238;23.124;2022-11-20T04:08:59;19.42;;;11.15;;
39410;SDS011;26579;43.238;23.124;2022-11-20T04:11:28;23.08;;;11.43;;
39410;SDS011;26579;43.238;23.124;2022-11-20T04:14:00;21.02;;;10.70;;
39410;SDS011;26579;43.238;23.124;2022-11-20T04:16:32;19.38;;;10.98;;
39410;SDS011;26579;43.238;23.124;2022-11-20T04:19:05;21.73;;;10.13;;
39410;SDS011;26579;43.238;23.124;2022-11-20T04:21:35;21.67;;;10.57;;
39410;SDS011;26579;43.238;23.124;2022-11-20T04:24:07;17.20;;;10.20;;
39410;SDS011;26579;43.238;23.124;2022-11-20T04:26:34;16.50;;;9.35;;
39410;SDS011;26579;43.238;23.124;2022-11-20T04:29:02;16.77;;;8.48;;
39410;SDS011;26579;43.238;23.124;2022-11-20T04:31:34;20.33;;;10.90;;
39410;SDS011;26579;43.238;23.124;2022-11-20T04:34:02;18.63;;;9.63;;
39410;SDS011;26579;43.238;23.124;2022-11-20T04:36:30;21.58;;;10.10;;
39410;SDS011;26579;43.238;23.124;2022-11-20T04:38:58;23.42;;;10.23;;
39410;SDS011;26579;43.238;23.124;2022-11-20T04:41:33;21.63;;;11.00;;
39410;SDS011;26579;43.238;23.124;2022-11-20T04:44:01;26.27;;;15.35;;
39410;SDS011;26579;43.238;23.124;2022-11-20T04:46:32;30.98;;;14.75;;
39410;SDS011;26579;43.238;23.124;2022-11-20T04:49:03;58.78;;;29.90;;
39410;SDS011;26579;43.238;23.124;2022-11-20T04:51:30;27.35;;;14.48;;
39410;SDS011;26579;43.238;23.124;2022-11-20T04:53:57;40.78;;;21.42;;
39410;SDS011;26579;43.238;23.124;2022-11-20T04:56:24;35.72;;;18.95;;
39410;SDS011;26579;43.238;23.124;2022-11-20T04:58:51;32.35;;;16.40;;
39410;SDS011;26579;43.238;23.124;2022-11-20T05:01:19;25.00;;;14.35;;
39410;SDS011;26579;43.238;23.124;2022-11-20T05:03:47;20.98;;;12.73;;
39410;SDS011;26579;43.238;23.124;2022-11-20T05:06:17;28.42;;;13.15;;
39410;SDS011;26579;43.238;23.124;2022-11-20T05:08:46;17.13;;;10.30;;
39410;SDS011;26579;43.238;23.124;2022-11-20T05:11:13;24.33;;;11.80;;
39410;SDS011;26579;43.238;23.124;2022-11-20T05:13:41;18.67;;;11.15;;
39410;SDS011;26579;43.238;23.124;2022-11-20T05:16:09;16.70;;;8.10;;
39410;SDS011;26579;43.238;23.124;2022-11-20T05:18:37;15.60;;;8.48;;
39410;SDS011;26579;43.238;23.124;2022-11-20T05:21:04;17.35;;;7.93;;
39410;SDS011;26579;43.238;23.124;2022-11-20T05:23:33;16.10;;;8.30;;
39410;SDS011;26579;43.238;23.124;2022-11-20T05:26:00;15.90;;;8.82;;
39410;SDS011;26579;43.238;23.124;2022-11-20T05:28:27;18.52;;;11.23;;
39410;SDS011;26579;43.238;23.124;2022-11-20T05:30:55;18.92;;;11.15;;
39410;SDS011;26579;43.238;23.124;2022-11-20T05:33:22;16.23;;;9.65;;
39410;SDS011;26579;43.238;23.124;2022-11-20T05:35:48;14.30;;;8.88;;
39410;SDS011;26579;43.238;23.124;2022-11-20T05:38:18;21.65;;;13.80;;
39410;SDS011;26579;43.238;23.124;2022-11-20T05:40:45;18.30;;;9.93;;
39410;SDS011;26579;43.238;23.124;2022-11-20T05:43:11;16.45;;;9.63;;
39410;SDS011;26579;43.238;23.124;2022-11-20T05:45:39;17.00;;;9.43;;
39410;SDS011;26579;43.238;23.124;2022-11-20T05:48:06;17.80;;;9.68;;
39410;SDS011;26579;43.238;23.124;2022-11-20T05:50:38;34.47;;;21.73;;
39410;SDS011;26579;43.238;23.124;2022-11-20T05:53:05;22.13;;;13.50;;
39410;SDS011;26579;43.238;23.124;2022-11-20T05:55:31;17.40;;;9.63;;
39410;SDS011;26579;43.238;23.124;2022-11-20T05:57:58;20.55;;;12.52;;
39410;SDS011;26579;43.238;23.124;2022-11-20T06:00:24;27.45;;;16.88;;
39410;SDS011;26579;43.238;23.124;2022-11-20T06:02:51;32.17;;;20.15;;
39410;SDS011;26579;43.238;23.124;2022-11-20T06:05:18;29.02;;;17.95;;
39410;SDS011;26579;43.238;23.124;2022-11-20T06:07:44;28.80;;;17.10;;
39410;SDS011;26579;43.238;23.124;2022-11-20T06:10:11;25.10;;;15.32;;
39410;SDS011;26579;43.238;23.124;2022-11-20T06:12:37;17.77;;;10.70;;
39410;SDS011;26579;43.238;23.124;2022-11-20T06:15:05;16.63;;;9.20;;
39410;SDS011;26579;43.238;23.124;2022-11-20T06:17:33;16.65;;;9.27;;
39410;SDS011;26579;43.238;23.124;2022-11-20T06:20:03;15.45;;;9.93;;
39410;SDS011;26579;43.238;23.124;2022-11-20T06:22:39;12.77;;;7.68;;
39410;SDS011;26579;43.238;23.124;2022-11-20T06:25:09;11.73;;;6.88;;
39410;SDS011;26579;43.238;23.124;2022-11-20T06:27:36;9.98;;;5.45;;
39410;SDS011;26579;43.238;23.124;2022-11-20T06:30:05;9.15;;;5.78;;
39410;SDS011;26579;43.238;23.124;2022-11-20T06:32:34;8.75;;;4.80;;
39410;SDS011;26579;43.238;23.124;2022-11-20T06:35:01;8.63;;;4.93;;
39410;SDS011;26579;43.238;23.124;2022-11-20T06:37:30;11.00;;;6.72;;
39410;SDS011;26579;43.238;23.124;2022-11-20T06:39:59;12.02;;;6.28;;
39410;SDS011;26579;43.238;23.124;2022-11-20T06:42:29;10.63;;;5.07;;
39410;SDS011;26579;43.238;23.124;2022-11-20T06:44:56;7.68;;;5.10;;
39410;SDS011;26579;43.238;23.124;2022-11-20T06:47:25;17.08;;;8.90;;
39410;SDS011;26579;43.238;23.124;2022-11-20T06:49:53;14.18;;;8.85;;
39410;SDS011;26579;43.238;23.124;2022-11-20T06:52:22;10.75;;;6.88;;
39410;SDS011;26579;43.238;23.124;2022-11-20T06:54:53;12.80;;;7.78;;
39410;SDS011;26579;43.238;23.124;2022-11-20T06:57:19;16.20;;;9.82;;
39410;SDS011;26579;43.238;23.124;2022-11-20T06:59:46;18.08;;;11.38;;
39410;SDS011;26579;43.238;23.124;2022-11-20T07:02:11;23.50;;;16.27;;
39410;SDS011;26579;43.238;23.124;2022-11-20T07:04:38;25.60;;;16.40;;
39410;SDS011;26579;43.238;23.124;2022-11-20T07:07:05;35.33;;;21.00;;
39410;SDS011;26579;43.238;23.124;2022-11-20T07:09:32;38.72;;;22.17;;
39410;SDS011;26579;43.238;23.124;2022-11-20T07:12:00;29.00;;;17.48;;
39410;SDS011;26579;43.238;23.124;2022-11-20T07:14:27;24.20;;;16.08;;
39410;SDS011;26579;43.238;23.124;2022-11-20T07:16:55;26.83;;;17.85;;
39410;SDS011;26579;43.238;23.124;2022-11-20T07:19:24;42.60;;;24.90;;
39410;SDS011;26579;43.238;23.124;2022-11-20T07:21:50;34.08;;;20.00;;
39410;SDS011;26579;43.238;23.124;2022-11-20T07:24:18;26.60;;;16.88;;
39410;SDS011;26579;43.238;23.124;2022-11-20T07:26:53;29.30;;;17.80;;
39410;SDS011;26579;43.238;23.124;2022-11-20T07:29:24;27.13;;;16.67;;
39410;SDS011;26579;43.238;23.124;2022-11-20T07:31:50;50.58;;;32.13;;
39410;SDS011;26579;43.238;23.124;2022-11-20T07:34:19;42.78;;;28.00;;
39410;SDS011;26579;43.238;23.124;2022-11-20T07:36:50;38.13;;;25.80;;
39410;SDS011;26579;43.238;23.124;2022-11-20T07:39:17;60.45;;;39.47;;
39410;SDS011;26579;43.238;23.124;2022-11-20T07:41:43;42.75;;;28.27;;
39410;SDS011;26579;43.238;23.124;2022-11-20T07:44:12;37.13;;;26.00;;
39410;SDS011;26579;43.238;23.124;2022-11-20T07:46:38;48.10;;;31.48;;
39410;SDS011;26579;43.238;23.124;2022-11-20T07:49:14;32.00;;;20.23;;
39410;SDS011;26579;43.238;23.124;2022-11-20T07:51:41;33.97;;;22.20;;
39410;SDS011;26579;43.238;23.124;2022-11-20T07:54:16;32.35;;;22.50;;
39410;SDS011;26579;43.238;23.124;2022-11-20T07:56:42;41.78;;;25.90;;
39410;SDS011;26579;43.238;23.124;2022-11-20T07:59:09;43.97;;;27.08;;
39410;SDS011;26579;43.238;23.124;2022-11-20T08:01:38;72.65;;;52.35;;
39410;SDS011;26579;43.238;23.124;2022-11-20T08:04:06;64.65;;;45.85;;
39410;SDS011;26579;43.238;23.124;2022-11-20T08:06:37;46.47;;;30.95;;
39410;SDS011;26579;43.238;23.124;2022-11-20T08:09:13;53.13;;;31.67;;
39410;SDS011;26579;43.238;23.124;2022-11-20T08:11:39;35.70;;;23.15;;
39410;SDS011;26579;43.238;23.124;2022-11-20T08:14:06;36.58;;;22.48;;
39410;SDS011;26579;43.238;23.124;2022-11-20T08:16:37;31.08;;;20.50;;
39410;SDS011;26579;43.238;23.124;2022-11-20T08:19:05;42.58;;;26.90;;
39410;SDS011;26579;43.238;23.124;2022-11-20T08:21:33;47.03;;;29.00;;
39410;SDS011;26579;43.238;23.124;2022-11-20T08:24:03;51.72;;;31.15;;
39410;SDS011;26579;43.238;23.124;2022-11-20T08:26:31;46.35;;;28.58;;
39410;SDS011;26579;43.238;23.124;2022-11-20T08:29:02;49.47;;;31.45;;
39410;SDS011;26579;43.238;23.124;2022-11-20T08:31:31;47.47;;;30.73;;
39410;SDS011;26579;43.238;23.124;2022-11-20T08:34:03;52.90;;;33.50;;
39410;SDS011;26579;43.238;23.124;2022-11-20T08:36:32;54.45;;;33.28;;
39410;SDS011;26579;43.238;23.124;2022-11-20T08:39:02;64.55;;;38.63;;
39410;SDS011;26579;43.238;23.124;2022-11-20T08:41:31;124.78;;;72.13;;
39410;SDS011;26579;43.238;23.124;2022-11-20T08:44:00;41.53;;;28.88;;
39410;SDS011;26579;43.238;23.124;2022-11-20T08:46:36;36.60;;;25.63;;
39410;SDS011;26579;43.238;23.124;2022-11-20T08:49:06;23.63;;;15.90;;
39410;SDS011;26579;43.238;23.124;2022-11-20T08:51:38;26.63;;;18.35;;
39410;SDS011;26579;43.238;23.124;2022-11-20T08:54:08;28.58;;;18.58;;
39410;SDS011;26579;43.238;23.124;2022-11-20T08:56:41;24.50;;;17.70;;
39410;SDS011;26579;43.238;23.124;2022-11-20T08:59:12;27.95;;;17.85;;
39410;SDS011;26579;43.238;23.124;2022-11-20T09:01:43;25.38;;;17.73;;
39410;SDS011;26579;43.238;23.124;2022-11-20T09:04:17;23.20;;;15.98;;
39410;SDS011;26579;43.238;23.124;2022-11-20T09:06:46;33.25;;;23.73;;
39410;SDS011;26579;43.238;23.124;2022-11-20T09:09:20;40.22;;;28.35;;
39410;SDS011;26579;43.238;23.124;2022-11-20T09:11:56;54.25;;;38.00;;
39410;SDS011;26579;43.238;23.124;2022-11-20T09:14:37;66.18;;;44.85;;
39410;SDS011;26579;43.238;23.124;2022-11-20T09:19:35;52.35;;;36.78;;
39410;SDS011;26579;43.238;23.124;2022-11-20T09:22:07;63.95;;;46.60;;
39410;SDS011;26579;43.238;23.124;2022-11-20T09:24:39;83.78;;;57.88;;
39410;SDS011;26579;43.238;23.124;2022-11-20T09:27:12;77.72;;;57.65;;
39410;SDS011;26579;43.238;23.124;2022-11-20T09:29:38;83.00;;;58.42;;
39410;SDS011;26579;43.238;23.124;2022-11-20T09:32:04;75.70;;;52.90;;
39410;SDS011;26579;43.238;23.124;2022-11-20T09:34:33;99.00;;;65.15;;
39410;SDS011;26579;43.238;23.124;2022-11-20T09:37:04;81.15;;;56.00;;
39410;SDS011;26579;43.238;23.124;2022-11-20T09:39:30;71.40;;;51.58;;
39410;SDS011;26579;43.238;23.124;2022-11-20T09:44:45;56.70;;;40.47;;
39410;SDS011;26579;43.238;23.124;2022-11-20T09:47:36;54.50;;;39.38;;
39410;SDS011;26579;43.238;23.124;2022-11-20T09:50:27;48.72;;;34.75;;
39410;SDS011;26579;43.238;23.124;2022-11-20T09:53:27;30.95;;;21.48;;
39410;SDS011;26579;43.238;23.124;2022-11-20T09:56:03;41.58;;;29.42;;
39410;SDS011;26579;43.238;23.124;2022-11-20T10:01:26;33.97;;;22.50;;
39410;SDS011;26579;43.238;23.124;2022-11-20T10:04:10;11.98;;;7.72;;
39410;SDS011;26579;43.238;23.124;2022-11-20T10:06:44;6.32;;;4.03;;
39410;SDS011;26579;43.238;23.124;2022-11-20T10:09:20;10.38;;;6.20;;
39410;SDS011;26579;43.238;23.124;2022-11-20T10:14:46;8.38;;;4.95;;
39410;SDS011;26579;43.238;23.124;2022-11-20T10:20:40;4.78;;;2.85;;
39410;SDS011;26579;43.238;23.124;2022-11-20T10:29:01;7.55;;;5.55;;
39410;SDS011;26579;43.238;23.124;2022-11-20T10:31:38;5.97;;;4.28;;
39410;SDS011;26579;43.238;23.124;2022-11-20T10:37:04;10.95;;;6.03;;
39410;SDS011;26579;43.238;23.124;2022-11-20T10:42:49;15.68;;;10.32;;
39410;SDS011;26579;43.238;23.124;2022-11-20T10:45:46;20.58;;;15.15;;
39410;SDS011;26579;43.238;23.124;2022-11-20T10:48:26;16.00;;;10.90;;
39410;SDS011;26579;43.238;23.124;2022-11-20T10:50:57;17.75;;;14.38;;
39410;SDS011;26579;43.238;23.124;2022-11-20T11:01:55;21.38;;;13.25;;
39410;SDS011;26579;43.238;23.124;2022-11-20T11:07:41;55.45;;;29.58;;
39410;SDS011;26579;43.238;23.124;2022-11-20T11:10:22;77.65;;;47.42;;
39410;SDS011;26579;43.238;23.124;2022-11-20T11:12:57;71.25;;;45.33;;
39410;SDS011;26579;43.238;23.124;2022-11-20T11:15:36;53.50;;;35.45;;
39410;SDS011;26579;43.238;23.124;2022-11-20T11:18:22;42.78;;;29.10;;
39410;SDS011;26579;43.238;23.124;2022-11-20T11:20:57;53.85;;;33.75;;
39410;SDS011;26579;43.238;23.124;2022-11-20T11:23:33;37.80;;;25.42;;
39410;SDS011;26579;43.238;23.124;2022-11-20T11:26:21;35.30;;;22.33;;
39410;SDS011;26579;43.238;23.124;2022-11-20T11:28:59;46.42;;;28.35;;
39410;SDS011;26579;43.238;23.124;2022-11-20T11:31:32;28.58;;;18.10;;
39410;SDS011;26579;43.238;23.124;2022-11-20T11:36:40;5.25;;;3.60;;
39410;SDS011;26579;43.238;23.124;2022-11-20T11:39:12;7.47;;;4.50;;
39410;SDS011;26579;43.238;23.124;2022-11-20T11:42:13;7.07;;;4.78;;
39410;SDS011;26579;43.238;23.124;2022-11-20T11:44:47;5.57;;;3.45;;
39410;SDS011;26579;43.238;23.124;2022-11-20T11:47:23;6.93;;;3.92;;
39410;SDS011;26579;43.238;23.124;2022-11-20T11:52:49;11.57;;;6.68;;
39410;SDS011;26579;43.238;23.124;2022-11-20T11:58:14;9.80;;;5.05;;
39410;SDS011;26579;43.238;23.124;2022-11-20T12:01:07;19.80;;;9.68;;
39410;SDS011;26579;43.238;23.124;2022-11-20T12:03:59;60.75;;;35.17;;
39410;SDS011;26579;43.238;23.124;2022-11-20T12:06:48;70.38;;;39.33;;
39410;SDS011;26579;43.238;23.124;2022-11-20T12:09:27;35.90;;;14.07;;
39410;SDS011;26579;43.238;23.124;2022-11-20T12:12:15;14.98;;;9.85;;
39410;SDS011;26579;43.238;23.124;2022-11-20T12:14:46;27.48;;;15.95;;
39410;SDS011;26579;43.238;23.124;2022-11-20T12:17:14;34.42;;;23.45;;
39410;SDS011;26579;43.238;23.124;2022-11-20T12:19:40;44.83;;;27.38;;
39410;SDS011;26579;43.238;23.124;2022-11-20T12:22:29;38.38;;;25.42;;
39410;SDS011;26579;43.238;23.124;2022-11-20T12:25:27;33.78;;;22.02;;
39410;SDS011;26579;43.238;23.124;2022-11-20T12:30:41;25.65;;;14.57;;
39410;SDS011;26579;43.238;23.124;2022-11-20T12:36:23;18.00;;;11.20;;
39410;SDS011;26579;43.238;23.124;2022-11-20T12:42:05;29.45;;;17.00;;
39410;SDS011;26579;43.238;23.124;2022-11-20T12:50:48;20.17;;;13.73;;
39410;SDS011;26579;43.238;23.124;2022-11-20T12:59:03;26.27;;;16.70;;
39410;SDS011;26579;43.238;23.124;2022-11-20T13:01:59;20.13;;;12.85;;
39410;SDS011;26579;43.238;23.124;2022-11-20T13:07:36;18.23;;;13.02;;
39410;SDS011;26579;43.238;23.124;2022-11-20T13:10:04;25.15;;;16.67;;
39410;SDS011;26579;43.238;23.124;2022-11-20T13:12:43;49.28;;;33.25;;
39410;SDS011;26579;43.238;23.124;2022-11-20T13:15:32;52.25;;;36.08;;
39410;SDS011;26579;43.238;23.124;2022-11-20T13:18:08;54.65;;;34.75;;
39410;SDS011;26579;43.238;23.124;2022-11-20T13:20:36;38.08;;;26.35;;
39410;SDS011;26579;43.238;23.124;2022-11-20T13:23:11;44.92;;;29.02;;
39410;SDS011;26579;43.238;23.124;2022-11-20T13:25:49;46.08;;;30.25;;
39410;SDS011;26579;43.238;23.124;2022-11-20T13:30:48;42.28;;;27.52;;
39410;SDS011;26579;43.238;23.124;2022-11-20T13:33:30;45.50;;;31.50;;
39410;SDS011;26579;43.238;23.124;2022-11-20T13:36:06;40.90;;;30.95;;
39410;SDS011;26579;43.238;23.124;2022-11-20T13:38:49;44.80;;;33.95;;
39410;SDS011;26579;43.238;23.124;2022-11-20T13:41:27;44.15;;;33.63;;
39410;SDS011;26579;43.238;23.124;2022-11-20T13:46:54;22.60;;;16.60;;
39410;SDS011;26579;43.238;23.124;2022-11-20T13:52:07;23.23;;;16.77;;
39410;SDS011;26579;43.238;23.124;2022-11-20T14:00:30;53.92;;;40.60;;
39410;SDS011;26579;43.238;23.124;2022-11-20T14:03:06;52.70;;;36.83;;
39410;SDS011;26579;43.238;23.124;2022-11-20T14:05:49;68.18;;;48.22;;
39410;SDS011;26579;43.238;23.124;2022-11-20T14:08:49;94.45;;;63.53;;
39410;SDS011;26579;43.238;23.124;2022-11-20T14:11:19;94.68;;;61.00;;
39410;SDS011;26579;43.238;23.124;2022-11-20T14:16:28;72.05;;;48.25;;
39410;SDS011;26579;43.238;23.124;2022-11-20T14:21:53;50.70;;;33.58;;
39410;SDS011;26579;43.238;23.124;2022-11-20T14:24:31;49.38;;;31.80;;
39410;SDS011;26579;43.238;23.124;2022-11-20T14:26:58;36.47;;;24.58;;
39410;SDS011;26579;43.238;23.124;2022-11-20T14:29:28;39.15;;;27.10;;
39410;SDS011;26579;43.238;23.124;2022-11-20T14:32:02;43.50;;;26.92;;
39410;SDS011;26579;43.238;23.124;2022-11-20T14:34:32;42.65;;;28.23;;
39410;SDS011;26579;43.238;23.124;2022-11-20T14:37:09;40.42;;;26.45;;
39410;SDS011;26579;43.238;23.124;2022-11-20T14:39:50;82.78;;;32.78;;
39410;SDS011;26579;43.238;23.124;2022-11-20T14:42:27;101.50;;;69.50;;
39410;SDS011;26579;43.238;23.124;2022-11-20T14:44:58;93.30;;;64.65;;
39410;SDS011;26579;43.238;23.124;2022-11-20T14:47:28;50.95;;;35.58;;
39410;SDS011;26579;43.238;23.124;2022-11-20T14:50:00;162.85;;;99.75;;
39410;SDS011;26579;43.238;23.124;2022-11-20T14:52:27;120.65;;;79.40;;
39410;SDS011;26579;43.238;23.124;2022-11-20T14:54:55;100.22;;;69.28;;
39410;SDS011;26579;43.238;23.124;2022-11-20T14:57:32;99.18;;;63.47;;
39410;SDS011;26579;43.238;23.124;2022-11-20T15:00:19;95.97;;;62.33;;
39410;SDS011;26579;43.238;23.124;2022-11-20T15:02:48;77.63;;;51.13;;
39410;SDS011;26579;43.238;23.124;2022-11-20T15:05:17;70.15;;;45.88;;
39410;SDS011;26579;43.238;23.124;2022-11-20T15:07:46;26.10;;;17.05;;
39410;SDS011;26579;43.238;23.124;2022-11-20T15:15:48;15.35;;;9.27;;
39410;SDS011;26579;43.238;23.124;2022-11-20T15:18:21;52.13;;;34.78;;
39410;SDS011;26579;43.238;23.124;2022-11-20T15:20:48;54.95;;;38.40;;
39410;SDS011;26579;43.238;23.124;2022-11-20T15:23:15;58.95;;;39.90;;
39410;SDS011;26579;43.238;23.124;2022-11-20T15:25:42;71.07;;;48.63;;
39410;SDS011;26579;43.238;23.124;2022-11-20T15:28:21;100.22;;;66.50;;
39410;SDS011;26579;43.238;23.124;2022-11-20T15:30:56;121.55;;;82.63;;
39410;SDS011;26579;43.238;23.124;2022-11-20T15:33:30;148.75;;;91.70;;
39410;SDS011;26579;43.238;23.124;2022-11-20T15:35:57;151.65;;;94.80;;
39410;SDS011;26579;43.238;23.124;2022-11-20T15:38:25;182.00;;;108.47;;
39410;SDS011;26579;43.238;23.124;2022-11-20T15:40:53;160.75;;;96.95;;
39410;SDS011;26579;43.238;23.124;2022-11-20T15:43:21;234.32;;;145.63;;
39410;SDS011;26579;43.238;23.124;2022-11-20T15:45:49;133.38;;;75.05;;
39410;SDS011;26579;43.238;23.124;2022-11-20T15:48:19;130.48;;;74.13;;
39410;SDS011;26579;43.238;23.124;2022-11-20T15:53:27;175.88;;;111.43;;
39410;SDS011;26579;43.238;23.124;2022-11-20T15:55:55;121.05;;;75.72;;
39410;SDS011;26579;43.238;23.124;2022-11-20T15:58:22;98.85;;;61.63;;
39410;SDS011;26579;43.238;23.124;2022-11-20T16:00:49;105.95;;;65.93;;
39410;SDS011;26579;43.238;23.124;2022-11-20T16:03:16;110.55;;;71.15;;
39410;SDS011;26579;43.238;23.124;2022-11-20T16:05:47;120.15;;;73.90;;
39410;SDS011;26579;43.238;23.124;2022-11-20T16:08:24;123.97;;;78.10;;
39410;SDS011;26579;43.238;23.124;2022-11-20T16:10:51;157.65;;;99.75;;
39410;SDS011;26579;43.238;23.124;2022-11-20T16:13:18;139.85;;;94.35;;
39410;SDS011;26579;43.238;23.124;2022-11-20T16:15:50;126.20;;;80.53;;
39410;SDS011;26579;43.238;23.124;2022-11-20T16:18:24;131.02;;;85.22;;
39410;SDS011;26579;43.238;23.124;2022-11-20T16:20:52;133.63;;;83.95;;
39410;SDS011;26579;43.238;23.124;2022-11-20T16:23:19;139.45;;;89.15;;